Time;durP1;ratioP1;P1;durP2;ratioP2;P2;SDS_P1;SDS_P2;PMS_P1;PMS_P2;Temp;Humidity;BMP_temperature;BMP_pressure;BME280_temperature;BME280_humidity;BME280_pressure;Samples;Min_cycle;Max_cycle;Signal;HPM_P1;HPM_P2
2023/12/04 00:03:23;;;;;;;11.38;6.72;;;0.80;99.90;;;;;;10066187;28;20129;-64
2023/12/04 00:08:13;;;;;;;14.65;5.50;;;0.80;99.90;;;;;;10064585;28;20562;-63
2023/12/04 00:13:04;;;;;;;15.85;6.25;;;0.70;99.90;;;;;;10071033;28;20044;-66
2023/12/04 00:17:55;;;;;;;9.95;5.85;;;0.70;99.90;;;;;;10074847;28;20022;-63
2023/12/04 00:22:46;;;;;;;13.93;5.63;;;0.70;99.90;;;;;;10071064;28;20026;-63
2023/12/04 00:27:36;;;;;;;9.40;6.10;;;0.60;99.90;;;;;;10075730;28;20505;-65
2023/12/04 00:32:27;;;;;;;10.63;5.47;;;0.70;99.90;;;;;;10063585;28;20025;-64
2023/12/04 00:37:17;;;;;;;16.52;6.18;;;0.70;99.90;;;;;;10062918;28;20046;-63
2023/12/04 00:42:08;;;;;;;11.77;5.60;;;0.60;99.90;;;;;;10066837;28;20021;-67
2023/12/04 00:46:59;;;;;;;11.40;6.80;;;0.60;99.90;;;;;;10068932;28;20049;-64
2023/12/04 00:51:50;;;;;;;12.45;5.82;;;0.60;99.90;;;;;;10064445;28;20022;-64
2023/12/04 00:56:41;;;;;;;14.20;5.70;;;0.60;99.90;;;;;;10058594;28;20514;-63
2023/12/04 01:01:31;;;;;;;12.48;6.47;;;0.60;99.90;;;;;;10065226;28;20406;-64
2023/12/04 01:06:23;;;;;;;16.40;5.47;;;0.60;99.90;;;;;;10064510;28;20029;-63
2023/12/04 01:11:15;;;;;;;11.48;6.07;;;0.60;99.90;;;;;;10059158;28;20387;-63
2023/12/04 01:16:06;;;;;;;12.13;6.10;;;0.60;99.90;;;;;;10072563;28;20037;-64
2023/12/04 01:20:57;;;;;;;12.35;6.07;;;0.60;99.90;;;;;;10061520;28;20021;-64
2023/12/04 01:25:47;;;;;;;10.40;5.40;;;0.60;99.90;;;;;;10064874;28;20045;-64
2023/12/04 01:30:38;;;;;;;8.13;4.38;;;0.60;99.90;;;;;;10064131;28;20029;-64
2023/12/04 01:35:29;;;;;;;8.48;4.32;;;0.60;99.90;;;;;;10058945;28;20501;-65
2023/12/04 01:40:19;;;;;;;9.98;4.63;;;0.50;99.90;;;;;;10059869;28;20021;-63
2023/12/04 01:45:10;;;;;;;12.23;5.05;;;0.50;99.90;;;;;;10064987;28;20030;-64
2023/12/04 01:50:01;;;;;;;9.38;4.88;;;0.50;99.90;;;;;;10068441;28;20373;-64
2023/12/04 01:54:52;;;;;;;8.88;4.55;;;0.50;99.90;;;;;;10058132;28;20041;-64
2023/12/04 01:59:43;;;;;;;8.52;4.35;;;0.40;99.90;;;;;;10061552;28;20460;-64
2023/12/04 02:04:34;;;;;;;7.45;3.78;;;0.40;99.90;;;;;;10061738;28;20033;-62
2023/12/04 02:09:25;;;;;;;9.77;4.07;;;0.50;99.90;;;;;;10060766;28;20083;-64
2023/12/04 02:14:15;;;;;;;11.32;5.10;;;0.50;99.90;;;;;;10064586;28;20060;-64
2023/12/04 02:19:12;;;;;;;8.77;3.70;;;0.50;99.90;;;;;;10061626;28;20188;-62
2023/12/04 02:24:02;;;;;;;7.10;4.53;;;0.50;99.90;;;;;;10063968;28;20044;-63
2023/12/04 02:28:59;;;;;;;9.65;4.55;;;0.40;99.90;;;;;;10062840;28;20523;-64
2023/12/04 02:33:52;;;;;;;8.23;3.85;;;0.40;99.90;;;;;;10058970;28;20049;-64
2023/12/04 02:38:43;;;;;;;6.07;3.38;;;0.50;99.90;;;;;;10066361;28;20018;-64
2023/12/04 02:43:34;;;;;;;8.27;3.85;;;0.50;99.90;;;;;;10060501;28;20075;-64
2023/12/04 02:48:24;;;;;;;7.78;3.60;;;0.60;99.90;;;;;;10044153;28;20396;-64
2023/12/04 02:53:15;;;;;;;8.75;3.78;;;0.50;99.90;;;;;;10058724;28;20041;-65
2023/12/04 02:58:05;;;;;;;8.93;3.92;;;0.50;99.90;;;;;;10061302;28;20598;-63
2023/12/04 03:02:56;;;;;;;6.60;3.97;;;0.50;99.90;;;;;;10065871;28;20033;-63
2023/12/04 03:07:47;;;;;;;9.32;4.03;;;0.60;99.90;;;;;;10060282;28;20430;-63
2023/12/04 03:12:37;;;;;;;5.72;3.33;;;0.60;99.90;;;;;;10059996;28;20574;-64
2023/12/04 03:17:28;;;;;;;11.95;4.47;;;0.60;99.90;;;;;;10071207;28;20029;-64
2023/12/04 03:22:19;;;;;;;8.40;4.00;;;0.50;99.90;;;;;;10064887;28;20441;-65
2023/12/04 03:27:09;;;;;;;9.85;3.88;;;0.60;99.90;;;;;;10070333;28;20059;-64
2023/12/04 03:32:00;;;;;;;6.57;3.80;;;0.60;99.90;;;;;;10067911;28;20030;-64
2023/12/04 03:36:51;;;;;;;8.30;3.97;;;0.60;99.90;;;;;;10069483;28;20511;-64
2023/12/04 03:41:41;;;;;;;8.15;3.58;;;0.60;99.90;;;;;;10074143;28;20033;-64
2023/12/04 03:46:32;;;;;;;8.63;4.15;;;0.60;99.90;;;;;;10071511;28;20074;-64
2023/12/04 03:51:22;;;;;;;9.65;3.97;;;0.60;99.90;;;;;;10066287;28;20026;-64
2023/12/04 03:56:13;;;;;;;7.13;3.33;;;0.60;99.90;;;;;;10063810;28;20416;-65
2023/12/04 04:01:04;;;;;;;6.45;3.55;;;0.60;99.90;;;;;;10067050;28;20059;-65
2023/12/04 04:05:55;;;;;;;8.35;3.95;;;0.60;99.90;;;;;;10048717;28;20460;-64
2023/12/04 04:10:45;;;;;;;8.85;3.85;;;0.60;99.90;;;;;;10068772;28;20548;-64
2023/12/04 04:15:36;;;;;;;6.80;3.53;;;0.60;99.90;;;;;;10073595;28;20045;-64
2023/12/04 04:20:26;;;;;;;7.97;3.72;;;0.60;99.90;;;;;;10071746;28;20029;-63
2023/12/04 04:25:18;;;;;;;6.22;3.47;;;0.60;99.90;;;;;;10067936;28;20113;-65
2023/12/04 04:30:09;;;;;;;8.98;3.85;;;0.60;99.90;;;;;;10067606;28;20029;-65
2023/12/04 04:35:00;;;;;;;6.85;3.83;;;0.60;99.90;;;;;;10060447;28;20163;-65
2023/12/04 04:39:50;;;;;;;7.55;3.90;;;0.60;99.90;;;;;;10072807;28;20064;-65
2023/12/04 04:44:41;;;;;;;7.88;3.92;;;0.60;99.90;;;;;;10065084;28;20249;-65
2023/12/04 04:49:32;;;;;;;8.30;4.20;;;0.60;99.90;;;;;;10063056;28;20067;-64
2023/12/04 04:54:22;;;;;;;8.88;4.10;;;0.60;99.90;;;;;;10058489;28;20037;-65
2023/12/04 04:59:13;;;;;;;6.40;3.50;;;0.60;99.90;;;;;;10060851;28;20676;-65
2023/12/04 05:04:04;;;;;;;8.85;3.63;;;0.70;99.90;;;;;;10067342;28;20037;-65
2023/12/04 05:08:54;;;;;;;7.28;4.10;;;0.70;99.90;;;;;;10061108;28;20033;-64
2023/12/04 05:13:45;;;;;;;11.90;4.78;;;0.60;99.90;;;;;;10072740;28;20033;-65
2023/12/04 05:18:36;;;;;;;9.00;4.63;;;0.60;99.90;;;;;;10075519;28;20039;-63
2023/12/04 05:23:26;;;;;;;4.78;3.33;;;0.60;99.90;;;;;;10066106;28;20030;-64
2023/12/04 05:28:17;;;;;;;10.80;4.03;;;0.60;99.90;;;;;;10068079;28;20558;-63
2023/12/04 05:33:08;;;;;;;6.97;3.38;;;0.60;99.90;;;;;;10059087;28;20109;-63
2023/12/04 05:37:58;;;;;;;9.45;4.18;;;0.70;99.90;;;;;;10074871;28;20418;-63
2023/12/04 05:42:49;;;;;;;8.45;3.97;;;0.70;99.90;;;;;;10064401;28;20477;-64
2023/12/04 05:47:40;;;;;;;7.55;3.60;;;0.70;99.90;;;;;;10074142;28;20502;-64
2023/12/04 05:52:30;;;;;;;4.57;3.35;;;0.70;99.90;;;;;;10061897;28;20033;-63
2023/12/04 05:57:21;;;;;;;10.68;4.25;;;0.70;99.90;;;;;;10058063;28;20037;-63
2023/12/04 06:02:12;;;;;;;8.35;3.90;;;0.70;99.90;;;;;;10059085;28;20068;-64
2023/12/04 06:07:03;;;;;;;10.65;4.13;;;0.70;99.90;;;;;;10058772;28;20022;-63
2023/12/04 06:11:54;;;;;;;7.03;3.40;;;0.70;99.90;;;;;;10059147;28;20041;-68
2023/12/04 06:16:44;;;;;;;6.93;3.30;;;0.70;99.90;;;;;;10062339;28;20033;-64
2023/12/04 06:21:35;;;;;;;10.15;3.88;;;0.80;99.90;;;;;;10062941;28;20036;-64
2023/12/04 06:26:26;;;;;;;8.45;3.70;;;0.80;99.90;;;;;;10060818;28;20097;-65
2023/12/04 06:31:17;;;;;;;7.78;3.63;;;0.70;99.90;;;;;;10060844;28;20095;-65
2023/12/04 06:36:08;;;;;;;6.88;3.70;;;0.70;99.90;;;;;;10061162;28;20115;-64
2023/12/04 06:41:00;;;;;;;8.27;3.88;;;0.70;99.90;;;;;;10071008;28;20029;-64
2023/12/04 06:45:51;;;;;;;10.02;5.13;;;0.70;99.90;;;;;;10064679;28;20022;-69
2023/12/04 06:50:41;;;;;;;11.57;5.07;;;0.70;99.90;;;;;;10061688;28;20038;-64
2023/12/04 06:55:32;;;;;;;7.82;3.85;;;0.70;99.90;;;;;;10054973;28;20053;-64
2023/12/04 07:00:22;;;;;;;11.27;4.82;;;0.70;99.90;;;;;;10058112;28;20533;-65
2023/12/04 07:05:13;;;;;;;10.80;4.63;;;0.70;99.90;;;;;;10073299;28;20091;-65
2023/12/04 07:10:04;;;;;;;8.13;4.13;;;0.80;99.90;;;;;;10069227;28;20029;-66
2023/12/04 07:14:55;;;;;;;9.10;4.47;;;0.80;99.90;;;;;;10063067;28;20079;-64
2023/12/04 07:19:46;;;;;;;14.80;5.95;;;0.80;99.90;;;;;;10080850;28;20083;-65
2023/12/04 07:24:36;;;;;;;9.48;4.32;;;0.80;99.90;;;;;;10091019;28;20028;-64
2023/12/04 07:29:28;;;;;;;13.48;5.30;;;0.90;99.90;;;;;;10074267;28;20021;-65
2023/12/04 07:34:19;;;;;;;15.02;5.65;;;0.90;99.90;;;;;;10065101;28;20538;-66
2023/12/04 07:39:10;;;;;;;14.18;5.90;;;0.90;99.90;;;;;;10063540;28;20025;-66
2023/12/04 07:44:01;;;;;;;10.88;5.20;;;0.90;99.90;;;;;;10075298;28;20585;-68
2023/12/04 07:48:52;;;;;;;9.35;4.97;;;0.90;99.90;;;;;;10080854;28;20055;-67
2023/12/04 07:53:42;;;;;;;9.32;4.72;;;0.90;99.90;;;;;;10074875;28;20029;-67
2023/12/04 07:58:33;;;;;;;11.88;6.00;;;0.90;99.90;;;;;;10069485;28;20033;-68
2023/12/04 08:03:27;;;;;;;15.27;5.15;;;0.90;99.90;;;;;;10064295;28;20025;-65
2023/12/04 08:08:18;;;;;;;12.90;5.53;;;1.00;99.90;;;;;;10061183;28;20375;-66
2023/12/04 08:13:08;;;;;;;13.88;5.05;;;1.00;99.90;;;;;;10067277;28;20033;-66
2023/12/04 08:18:00;;;;;;;13.02;4.97;;;1.00;99.90;;;;;;10074059;28;20041;-65
2023/12/04 08:22:51;;;;;;;14.30;4.93;;;1.00;99.90;;;;;;10078111;28;20021;-67
2023/12/04 08:27:42;;;;;;;11.43;4.75;;;1.10;99.90;;;;;;10072860;28;20486;-66
2023/12/04 08:32:33;;;;;;;12.02;5.60;;;1.10;99.90;;;;;;10059910;28;20464;-66
2023/12/04 08:37:24;;;;;;;11.38;5.05;;;1.10;99.90;;;;;;10079589;28;20127;-68
2023/12/04 08:42:14;;;;;;;11.85;5.50;;;1.10;99.90;;;;;;10070531;28;20031;-66
2023/12/04 08:47:05;;;;;;;14.30;6.22;;;1.10;99.90;;;;;;10063825;28;20030;-67
2023/12/04 08:51:56;;;;;;;9.70;5.63;;;1.20;99.90;;;;;;10079796;28;20848;-66
2023/12/04 08:56:47;;;;;;;12.40;5.68;;;1.20;99.90;;;;;;10070867;28;20076;-65
2023/12/04 09:01:37;;;;;;;13.25;5.75;;;1.10;99.90;;;;;;10065750;28;20029;-67
2023/12/04 09:06:28;;;;;;;9.32;4.97;;;1.10;99.90;;;;;;10059625;28;20037;-65
2023/12/04 09:11:19;;;;;;;13.43;4.55;;;1.20;99.90;;;;;;10058226;28;20437;-67
2023/12/04 09:16:09;;;;;;;12.07;5.35;;;1.20;99.90;;;;;;10067161;28;20526;-65
2023/12/04 09:21:00;;;;;;;9.35;5.05;;;1.30;99.90;;;;;;10067369;28;20041;-65
2023/12/04 09:25:51;;;;;;;10.52;5.45;;;1.30;99.90;;;;;;10070945;28;20065;-66
2023/12/04 09:30:41;;;;;;;10.60;6.15;;;1.40;99.90;;;;;;10061414;28;20029;-66
2023/12/04 09:35:32;;;;;;;10.20;5.20;;;1.40;99.90;;;;;;10061646;28;20057;-66
2023/12/04 09:40:23;;;;;;;10.00;5.22;;;1.50;99.90;;;;;;10065805;28;20030;-67
2023/12/04 09:45:15;;;;;;;9.70;5.40;;;1.50;99.90;;;;;;10069157;28;20033;-66
2023/12/04 09:50:07;;;;;;;13.05;5.28;;;1.50;99.90;;;;;;10075884;28;20029;-65
2023/12/04 09:54:57;;;;;;;12.57;5.03;;;1.50;99.90;;;;;;10068378;28;20036;-67
2023/12/04 09:59:49;;;;;;;11.00;6.47;;;1.50;99.90;;;;;;10064347;28;20034;-65
2023/12/04 10:04:41;;;;;;;15.02;5.15;;;1.60;99.90;;;;;;10061109;28;20033;-65
2023/12/04 10:09:32;;;;;;;14.45;5.90;;;1.50;99.90;;;;;;10058363;28;20534;-67
2023/12/04 10:14:23;;;;;;;13.52;5.93;;;1.60;99.90;;;;;;10061012;28;20099;-68
2023/12/04 10:19:26;;;;;;;11.82;5.80;;;1.50;99.90;;;;;;10055947;28;20094;-67
2023/12/04 10:24:35;;;;;;;11.45;5.35;;;1.50;99.90;;;;;;10065953;28;20121;-68
2023/12/04 10:29:39;;;;;;;9.70;5.20;;;1.50;99.90;;;;;;10060238;28;20107;-66
2023/12/04 10:34:30;;;;;;;13.80;6.07;;;1.60;99.90;;;;;;10053182;28;20506;-72
2023/12/04 10:39:21;;;;;;;13.25;6.30;;;1.60;99.90;;;;;;10046228;28;21206;-67
2023/12/04 10:44:18;;;;;;;11.25;6.13;;;1.70;99.90;;;;;;10053296;28;20584;-65
2023/12/04 10:49:09;;;;;;;12.70;5.70;;;1.70;99.90;;;;;;10057295;28;20030;-67
2023/12/04 10:54:04;;;;;;;13.10;6.45;;;1.70;99.90;;;;;;10056298;28;20107;-69
2023/12/04 10:58:59;;;;;;;10.38;5.13;;;1.70;99.90;;;;;;10063336;28;20438;-72
2023/12/04 11:03:54;;;;;;;11.05;5.30;;;1.70;99.90;;;;;;10064262;28;20565;-68
2023/12/04 11:08:48;;;;;;;8.20;4.72;;;1.70;99.90;;;;;;10069749;28;20028;-67
2023/12/04 11:13:41;;;;;;;10.55;5.50;;;1.60;99.90;;;;;;10046034;28;20029;-65
2023/12/04 11:18:39;;;;;;;13.15;5.43;;;1.70;99.90;;;;;;10067718;28;20041;-66
2023/12/04 11:23:31;;;;;;;10.88;5.40;;;1.60;99.90;;;;;;10064199;28;20029;-65
2023/12/04 11:28:23;;;;;;;15.40;5.45;;;1.70;99.90;;;;;;10062739;28;20037;-65
2023/12/04 11:33:13;;;;;;;10.80;5.57;;;1.70;99.90;;;;;;10057712;28;20099;-65
2023/12/04 11:38:06;;;;;;;10.95;5.60;;;1.60;99.90;;;;;;10061205;28;20094;-65
2023/12/04 11:42:57;;;;;;;12.40;5.32;;;1.70;99.90;;;;;;10072461;28;20030;-65
2023/12/04 11:47:56;;;;;;;13.57;5.68;;;1.70;99.90;;;;;;10071944;28;20037;-65
2023/12/04 11:52:47;;;;;;;12.27;4.80;;;1.80;99.90;;;;;;10080217;28;20064;-65
2023/12/04 11:57:39;;;;;;;11.02;5.53;;;1.80;99.90;;;;;;10077673;28;20751;-65
2023/12/04 12:02:30;;;;;;;10.25;5.57;;;1.80;99.90;;;;;;10071297;28;20025;-64
2023/12/04 12:07:21;;;;;;;13.57;4.93;;;1.80;99.90;;;;;;10065463;28;20033;-66
2023/12/04 12:12:13;;;;;;;10.32;4.45;;;1.90;99.90;;;;;;10066529;28;20044;-66
2023/12/04 12:17:04;;;;;;;8.43;4.80;;;1.90;99.90;;;;;;10063496;28;20037;-67
2023/12/04 12:21:55;;;;;;;13.73;5.78;;;1.90;99.90;;;;;;10075307;28;20498;-65
2023/12/04 12:26:46;;;;;;;12.70;5.75;;;1.90;99.90;;;;;;10073331;28;20036;-67
2023/12/04 12:31:37;;;;;;;10.57;5.18;;;1.90;99.90;;;;;;10060655;28;20033;-65
2023/12/04 12:36:28;;;;;;;12.20;5.80;;;2.00;99.90;;;;;;10074961;28;20455;-66
2023/12/04 12:41:20;;;;;;;13.05;5.45;;;2.00;99.90;;;;;;10067076;28;20369;-66
2023/12/04 12:46:11;;;;;;;13.43;5.95;;;2.00;99.90;;;;;;10070294;28;20033;-67
2023/12/04 12:51:06;;;;;;;11.35;5.43;;;2.10;99.90;;;;;;10049974;28;20057;-68
2023/12/04 12:55:56;;;;;;;10.38;5.25;;;2.00;99.90;;;;;;10058241;28;20082;-68
2023/12/04 13:00:47;;;;;;;10.85;5.38;;;2.10;99.90;;;;;;10070108;28;20036;-66
2023/12/04 13:05:38;;;;;;;9.93;5.15;;;2.10;99.90;;;;;;10061756;28;20068;-68
2023/12/04 13:10:28;;;;;;;10.40;5.20;;;2.20;99.90;;;;;;10050170;28;20483;-67
2023/12/04 13:15:19;;;;;;;12.40;5.50;;;2.20;99.90;;;;;;10062965;28;20040;-67
2023/12/04 13:20:13;;;;;;;9.80;4.70;;;2.20;99.90;;;;;;10070347;28;20036;-67
2023/12/04 13:25:07;;;;;;;9.82;4.82;;;2.20;99.90;;;;;;10066712;28;20064;-67
2023/12/04 13:29:57;;;;;;;13.73;5.28;;;2.20;99.90;;;;;;10073545;28;20017;-67
2023/12/04 13:34:48;;;;;;;12.52;5.63;;;2.20;99.90;;;;;;10069621;28;20123;-66
2023/12/04 13:39:47;;;;;;;9.05;4.78;;;2.20;99.90;;;;;;10066294;28;20813;-68
2023/12/04 13:44:38;;;;;;;10.88;4.95;;;2.30;99.90;;;;;;10065153;28;20045;-66
2023/12/04 13:49:28;;;;;;;10.45;4.88;;;2.30;99.90;;;;;;10066167;28;20096;-66
2023/12/04 13:54:24;;;;;;;9.82;4.97;;;2.30;99.90;;;;;;10066052;28;20064;-67
2023/12/04 13:59:19;;;;;;;;;;;2.30;99.90;;;;;;10070522;28;20017;-67
2023/12/04 14:04:10;;;;;;;7.25;4.07;;;2.30;99.90;;;;;;10061796;28;19921;-66
2023/12/04 14:09:01;;;;;;;12.38;5.90;;;2.30;99.90;;;;;;10067657;28;20172;-64
2023/12/04 14:13:51;;;;;;;11.27;5.00;;;2.30;99.90;;;;;;10039613;28;20144;-65
2023/12/04 14:18:42;;;;;;;13.68;6.40;;;2.30;99.90;;;;;;10059709;28;20128;-64
2023/12/04 14:23:32;;;;;;;12.98;6.22;;;2.40;99.90;;;;;;10058812;28;20021;-64
2023/12/04 14:28:23;;;;;;;13.57;5.40;;;2.40;99.90;;;;;;10063985;28;20116;-65
2023/12/04 14:33:14;;;;;;;9.98;5.45;;;2.40;99.90;;;;;;10059914;28;20121;-66
2023/12/04 14:38:05;;;;;;;14.50;5.70;;;2.40;99.90;;;;;;10059237;28;20033;-67
2023/12/04 14:42:55;;;;;;;9.75;5.20;;;2.50;99.90;;;;;;10063680;28;20033;-67
2023/12/04 14:47:48;;;;;;;17.80;5.97;;;2.50;99.90;;;;;;10068078;28;20029;-67
2023/12/04 14:52:46;;;;;;;10.57;5.25;;;2.50;99.90;;;;;;10058042;28;20033;-68
2023/12/04 15:07:41;;;;;;;9.77;5.22;;;2.60;99.90;;;;;;10057237;28;20102;-68
2023/12/04 15:17:32;;;;;;;13.45;6.30;;;2.60;99.90;;;;;;10064709;28;20041;-68
2023/12/04 15:22:23;;;;;;;14.23;5.97;;;2.70;99.90;;;;;;10063083;28;20439;-69
2023/12/04 15:27:14;;;;;;;11.02;4.97;;;2.70;99.90;;;;;;10068805;28;20550;-68
2023/12/04 15:32:04;;;;;;;10.95;5.15;;;2.70;99.90;;;;;;10068345;28;20044;-68
2023/12/04 15:36:55;;;;;;;10.57;5.53;;;2.70;99.90;;;;;;10069857;28;20061;-68
2023/12/04 15:41:46;;;;;;;13.80;5.68;;;2.70;99.90;;;;;;10069337;28;20399;-69
2023/12/04 15:46:36;;;;;;;13.93;4.80;;;2.70;99.90;;;;;;10057504;28;20029;-69
2023/12/04 15:51:27;;;;;;;11.75;4.88;;;2.70;99.90;;;;;;10063847;28;20533;-69
2023/12/04 15:56:18;;;;;;;12.05;5.05;;;2.70;99.90;;;;;;10045333;28;20060;-68
2023/12/04 16:01:09;;;;;;;8.88;4.63;;;2.80;99.90;;;;;;10049857;28;20669;-67
2023/12/04 16:06:00;;;;;;;8.98;5.30;;;2.80;99.90;;;;;;10052503;28;20029;-68
2023/12/04 16:10:50;;;;;;;11.27;4.65;;;2.70;99.90;;;;;;10070812;28;20100;-70
2023/12/04 16:15:46;;;;;;;10.75;4.85;;;2.80;99.90;;;;;;10064243;28;20034;-68
2023/12/04 16:20:36;;;;;;;9.07;4.20;;;2.80;99.90;;;;;;10063239;28;20138;-68
2023/12/04 16:25:27;;;;;;;10.13;4.65;;;2.80;99.90;;;;;;10067451;28;20784;-68
2023/12/04 16:30:19;;;;;;;10.18;4.47;;;2.80;99.90;;;;;;10070681;28;20025;-67
2023/12/04 16:35:10;;;;;;;12.43;5.65;;;2.80;99.90;;;;;;10068092;28;20115;-67
2023/12/04 16:40:00;;;;;;;9.70;4.93;;;2.80;99.90;;;;;;10067494;28;20021;-69
2023/12/04 16:44:51;;;;;;;10.68;5.80;;;2.80;99.90;;;;;;10064128;28;20510;-67
2023/12/04 16:49:42;;;;;;;14.15;5.57;;;2.80;99.90;;;;;;10062671;28;20049;-71
2023/12/04 16:54:32;;;;;;;11.70;5.70;;;2.80;99.90;;;;;;10092701;28;20041;-69
2023/12/04 16:59:23;;;;;;;11.63;5.45;;;2.80;99.90;;;;;;10085527;28;20033;-68
2023/12/04 17:04:13;;;;;;;9.10;4.93;;;2.80;99.90;;;;;;10071398;28;20064;-68
2023/12/04 17:09:04;;;;;;;11.57;5.15;;;2.80;99.90;;;;;;10064563;28;20479;-66
2023/12/04 17:13:55;;;;;;;13.32;5.78;;;2.90;99.90;;;;;;10066308;28;20551;-67
2023/12/04 17:18:45;;;;;;;7.68;5.00;;;2.90;99.90;;;;;;10064301;28;20021;-67
2023/12/04 17:23:36;;;;;;;10.75;5.97;;;2.90;99.90;;;;;;10072485;28;20091;-67
2023/12/04 17:28:27;;;;;;;11.40;5.88;;;2.90;99.90;;;;;;10068188;28;20182;-65
2023/12/04 17:33:18;;;;;;;11.52;5.72;;;2.90;99.90;;;;;;10059585;28;20376;-64
2023/12/04 17:38:09;;;;;;;9.30;4.80;;;2.90;99.90;;;;;;10065952;28;20017;-66
2023/12/04 17:42:59;;;;;;;7.13;4.68;;;3.00;99.90;;;;;;10067766;28;20044;-68
2023/12/04 17:47:50;;;;;;;9.65;5.82;;;3.00;99.90;;;;;;10056207;28;20037;-67
2023/12/04 17:52:41;;;;;;;10.57;5.60;;;3.00;99.90;;;;;;10077304;28;20033;-65
2023/12/04 17:57:31;;;;;;;10.27;5.40;;;3.00;99.90;;;;;;10065850;28;20035;-72
2023/12/04 18:02:26;;;;;;;7.95;4.25;;;3.00;99.90;;;;;;10071272;28;20040;-71
2023/12/04 18:07:20;;;;;;;9.38;4.03;;;3.00;99.90;;;;;;10053773;28;20053;-68
2023/12/04 18:12:10;;;;;;;13.07;5.47;;;3.00;99.90;;;;;;10046217;28;20060;-69
2023/12/04 18:17:06;;;;;;;9.43;4.13;;;3.10;99.90;;;;;;10064078;28;20072;-69
2023/12/04 18:21:56;;;;;;;8.70;4.47;;;3.10;99.90;;;;;;10060376;28;20110;-68
2023/12/04 18:26:47;;;;;;;11.52;5.20;;;3.20;99.90;;;;;;10066500;28;20040;-68
2023/12/04 18:31:38;;;;;;;7.38;4.82;;;3.10;99.90;;;;;;10062905;28;20108;-70
2023/12/04 18:36:37;;;;;;;8.05;4.03;;;3.20;99.90;;;;;;10065262;28;20449;-69
2023/12/04 18:41:28;;;;;;;8.85;4.25;;;3.20;99.90;;;;;;10064506;28;20033;-70
2023/12/04 18:46:20;;;;;;;6.05;3.58;;;3.20;99.90;;;;;;10060260;28;20607;-68
2023/12/04 18:51:12;;;;;;;6.80;4.00;;;3.20;99.90;;;;;;10058896;28;20027;-68
2023/12/04 18:56:07;;;;;;;8.15;4.60;;;3.20;99.90;;;;;;10060758;28;20038;-68
2023/12/04 19:00:58;;;;;;;6.45;3.65;;;3.30;99.90;;;;;;10083357;28;20025;-68
2023/12/04 19:05:49;;;;;;;7.88;3.58;;;3.30;99.90;;;;;;10068933;28;20052;-67
2023/12/04 19:10:39;;;;;;;8.52;4.32;;;3.30;99.90;;;;;;10065736;28;20033;-67
2023/12/04 19:15:36;;;;;;;6.22;3.75;;;3.30;99.90;;;;;;10061051;28;20037;-70
2023/12/04 19:20:29;;;;;;;10.35;4.38;;;3.30;99.90;;;;;;10044346;28;20056;-68
2023/12/04 19:25:19;;;;;;;8.52;3.78;;;3.40;99.90;;;;;;10032984;28;20057;-66
2023/12/04 19:30:10;;;;;;;8.40;4.00;;;3.40;99.90;;;;;;10065711;28;20032;-66
2023/12/04 19:35:01;;;;;;;9.32;4.68;;;3.40;99.90;;;;;;10068073;28;20045;-67
2023/12/04 19:39:52;;;;;;;7.85;4.22;;;3.40;99.90;;;;;;10070480;28;20098;-67
2023/12/04 19:44:43;;;;;;;9.70;4.35;;;3.50;99.90;;;;;;10064212;28;20045;-66
2023/12/04 19:49:34;;;;;;;7.43;3.97;;;3.40;99.90;;;;;;10070866;28;20068;-66
2023/12/04 19:54:26;;;;;;;11.85;4.30;;;3.40;99.90;;;;;;10069534;28;20053;-65
2023/12/04 19:59:17;;;;;;;7.15;3.97;;;3.40;99.90;;;;;;10056861;28;20028;-67
2023/12/04 20:04:08;;;;;;;12.90;5.70;;;3.50;99.90;;;;;;10056354;28;20037;-70
2023/12/04 20:08:59;;;;;;;9.40;4.15;;;3.40;99.90;;;;;;10057369;28;20021;-70
2023/12/04 20:13:50;;;;;;;7.45;4.13;;;3.50;99.90;;;;;;10077005;28;20116;-74
2023/12/04 20:18:46;;;;;;;6.43;3.83;;;3.40;99.90;;;;;;10081630;28;20031;-69
2023/12/04 20:23:37;;;;;;;8.23;3.92;;;3.50;99.90;;;;;;10064652;28;20025;-75
2023/12/04 20:28:27;;;;;;;10.27;4.38;;;3.50;99.90;;;;;;10066122;28;20396;-74
2023/12/04 20:33:19;;;;;;;8.32;4.38;;;3.50;99.90;;;;;;10056648;28;20021;-81
2023/12/04 20:38:13;;;;;;;10.25;4.95;;;3.50;99.90;;;;;;10073598;28;20029;-76
2023/12/04 20:43:05;;;;;;;11.15;4.35;;;3.50;99.90;;;;;;10050572;28;20032;-69
2023/12/04 20:47:55;;;;;;;9.10;4.20;;;3.50;99.90;;;;;;10062209;28;20048;-76
2023/12/04 20:52:46;;;;;;;7.95;3.95;;;3.50;99.90;;;;;;10059107;28;20122;-72
2023/12/04 20:57:38;;;;;;;3.97;3.42;;;3.60;99.90;;;;;;10065057;28;20106;-70
2023/12/04 21:02:32;;;;;;;7.40;3.95;;;3.60;99.90;;;;;;10067550;28;20112;-72
2023/12/04 21:07:24;;;;;;;6.70;4.53;;;3.60;99.90;;;;;;10045540;28;20040;-74
2023/12/04 21:12:15;;;;;;;9.13;3.90;;;3.60;99.90;;;;;;10049949;28;20033;-69
2023/12/04 21:17:08;;;;;;;7.60;3.80;;;3.70;99.90;;;;;;10063626;28;20552;-73
2023/12/04 21:21:58;;;;;;;9.10;4.38;;;3.60;99.90;;;;;;10059892;28;20025;-70
2023/12/04 21:26:49;;;;;;;7.47;4.10;;;3.70;99.90;;;;;;10065666;28;20041;-72
2023/12/04 21:31:41;;;;;;;7.45;3.72;;;3.70;99.90;;;;;;10061358;28;20065;-67
2023/12/04 21:36:31;;;;;;;6.97;4.20;;;3.70;99.90;;;;;;10062380;28;20132;-69
2023/12/04 21:41:27;;;;;;;4.88;2.92;;;3.70;99.90;;;;;;10061738;28;20112;-69
2023/12/04 21:46:21;;;;;;;9.45;3.72;;;3.70;99.90;;;;;;10061853;28;20022;-69
2023/12/04 21:51:12;;;;;;;7.80;4.10;;;3.80;99.90;;;;;;10059741;28;20726;-68
2023/12/04 21:56:03;;;;;;;6.30;3.17;;;3.80;99.90;;;;;;10059537;28;20037;-68
2023/12/04 22:00:57;;;;;;;8.30;3.97;;;3.80;99.90;;;;;;10060882;28;20029;-71
2023/12/04 22:05:48;;;;;;;6.38;4.35;;;3.80;99.90;;;;;;10063561;28;20052;-71
2023/12/04 22:10:39;;;;;;;7.20;3.67;;;3.80;99.90;;;;;;10066368;28;20120;-69
2023/12/04 22:15:31;;;;;;;8.20;3.58;;;3.90;99.90;;;;;;10059164;28;20481;-69
2023/12/04 22:20:22;;;;;;;6.80;3.67;;;3.80;99.90;;;;;;10054172;28;20044;-69
2023/12/04 22:25:14;;;;;;;6.63;4.28;;;3.90;99.90;;;;;;10064313;28;20036;-68
2023/12/04 22:30:05;;;;;;;9.32;3.67;;;3.90;99.90;;;;;;10070171;28;20026;-69
2023/12/04 22:34:59;;;;;;;7.78;4.35;;;3.90;99.90;;;;;;10065747;28;20056;-68
2023/12/04 22:39:50;;;;;;;6.63;3.55;;;3.90;99.90;;;;;;10058625;28;20048;-69
2023/12/04 22:44:41;;;;;;;4.93;3.80;;;3.90;99.90;;;;;;10055309;28;20029;-69
2023/12/04 22:49:32;;;;;;;6.13;3.28;;;4.00;99.90;;;;;;10057191;28;20033;-70
2023/12/04 22:54:22;;;;;;;5.30;3.47;;;4.00;99.90;;;;;;10057480;28;20617;-68
2023/12/04 22:59:13;;;;;;;5.43;3.70;;;4.00;99.90;;;;;;10059022;28;20024;-69
2023/12/04 23:04:04;;;;;;;7.93;3.65;;;4.00;99.90;;;;;;10067297;28;20036;-68
2023/12/04 23:08:56;;;;;;;8.50;4.15;;;4.00;99.90;;;;;;10043893;28;20080;-72
2023/12/04 23:13:46;;;;;;;8.27;3.97;;;4.10;99.90;;;;;;10056479;28;20506;-72
2023/12/04 23:18:37;;;;;;;6.20;3.90;;;4.10;99.90;;;;;;10056226;28;20029;-68
2023/12/04 23:23:28;;;;;;;6.07;3.97;;;4.20;99.90;;;;;;10055480;28;20029;-69
2023/12/04 23:28:18;;;;;;;8.63;3.83;;;4.20;99.90;;;;;;10070212;28;20017;-70
2023/12/04 23:33:09;;;;;;;7.28;3.40;;;4.20;99.90;;;;;;10068057;28;20028;-70
2023/12/04 23:38:00;;;;;;;7.00;3.63;;;4.20;99.90;;;;;;10061195;28;20033;-69
2023/12/04 23:42:51;;;;;;;5.78;2.70;;;4.30;99.90;;;;;;10060959;28;20116;-73
2023/12/04 23:47:42;;;;;;;5.38;3.03;;;4.30;99.90;;;;;;10067524;28;20086;-73
2023/12/04 23:52:33;;;;;;;9.35;3.35;;;4.30;99.90;;;;;;10086347;28;20102;-68
2023/12/04 23:57:23;;;;;;;6.20;3.30;;;4.30;99.90;;;;;;10080865;28;20601;-70
